sensor_id;sensor_type;location;lat;lon;timestamp;P1;durP1;ratioP1;P2;durP2;ratioP2
46723;SDS011;32463;48.298;11.620;2023-03-04T00:00:12;145.18;;;48.42;;
46723;SDS011;32463;48.298;11.620;2023-03-04T00:02:38;118.57;;;43.85;;
46723;SDS011;32463;48.298;11.620;2023-03-04T00:05:05;139.88;;;46.20;;
46723;SDS011;32463;48.298;11.620;2023-03-04T00:07:32;138.98;;;47.35;;
46723;SDS011;32463;48.298;11.620;2023-03-04T00:10:03;144.73;;;47.03;;
46723;SDS011;32463;48.298;11.620;2023-03-04T00:12:31;136.45;;;46.45;;
46723;SDS011;32463;48.298;11.620;2023-03-04T00:14:59;133.55;;;45.65;;
46723;SDS011;32463;48.298;11.620;2023-03-04T00:17:25;126.55;;;44.78;;
46723;SDS011;32463;48.298;11.620;2023-03-04T00:19:54;127.13;;;45.65;;
46723;SDS011;32463;48.298;11.620;2023-03-04T00:22:20;135.93;;;44.97;;
46723;SDS011;32463;48.298;11.620;2023-03-04T00:24:47;134.63;;;45.95;;
46723;SDS011;32463;48.298;11.620;2023-03-04T00:27:13;133.23;;;46.05;;
46723;SDS011;32463;48.298;11.620;2023-03-04T00:29:40;124.63;;;44.08;;
46723;SDS011;32463;48.298;11.620;2023-03-04T00:32:06;125.55;;;44.22;;
46723;SDS011;32463;48.298;11.620;2023-03-04T00:34:33;131.65;;;45.45;;
46723;SDS011;32463;48.298;11.620;2023-03-04T00:36:59;134.90;;;46.83;;
46723;SDS011;32463;48.298;11.620;2023-03-04T00:39:28;139.75;;;46.63;;
46723;SDS011;32463;48.298;11.620;2023-03-04T00:41:56;132.05;;;47.67;;
46723;SDS011;32463;48.298;11.620;2023-03-04T00:44:23;131.35;;;46.88;;
46723;SDS011;32463;48.298;11.620;2023-03-04T00:46:50;142.60;;;48.35;;
46723;SDS011;32463;48.298;11.620;2023-03-04T00:49:17;158.48;;;48.47;;
46723;SDS011;32463;48.298;11.620;2023-03-04T00:51:44;137.95;;;46.92;;
46723;SDS011;32463;48.298;11.620;2023-03-04T00:54:10;146.05;;;47.47;;
46723;SDS011;32463;48.298;11.620;2023-03-04T00:56:38;139.48;;;47.65;;
46723;SDS011;32463;48.298;11.620;2023-03-04T00:59:05;137.52;;;46.80;;
46723;SDS011;32463;48.298;11.620;2023-03-04T01:01:32;136.48;;;46.70;;
46723;SDS011;32463;48.298;11.620;2023-03-04T01:03:59;136.38;;;46.05;;
46723;SDS011;32463;48.298;11.620;2023-03-04T01:06:26;139.45;;;48.00;;
46723;SDS011;32463;48.298;11.620;2023-03-04T01:08:52;144.93;;;48.45;;
46723;SDS011;32463;48.298;11.620;2023-03-04T01:11:22;142.90;;;47.58;;
46723;SDS011;32463;48.298;11.620;2023-03-04T01:13:52;136.52;;;44.75;;
46723;SDS011;32463;48.298;11.620;2023-03-04T01:16:18;141.77;;;45.40;;
46723;SDS011;32463;48.298;11.620;2023-03-04T01:18:45;130.27;;;45.53;;
46723;SDS011;32463;48.298;11.620;2023-03-04T01:21:12;146.63;;;46.47;;
46723;SDS011;32463;48.298;11.620;2023-03-04T01:23:39;146.10;;;46.83;;
46723;SDS011;32463;48.298;11.620;2023-03-04T01:26:06;146.98;;;48.40;;
46723;SDS011;32463;48.298;11.620;2023-03-04T01:28:33;139.10;;;47.17;;
46723;SDS011;32463;48.298;11.620;2023-03-04T01:31:01;138.65;;;46.38;;
46723;SDS011;32463;48.298;11.620;2023-03-04T01:33:29;125.45;;;45.65;;
46723;SDS011;32463;48.298;11.620;2023-03-04T01:35:56;136.27;;;46.00;;
46723;SDS011;32463;48.298;11.620;2023-03-04T01:38:23;135.32;;;47.47;;
46723;SDS011;32463;48.298;11.620;2023-03-04T01:40:49;145.02;;;46.20;;
46723;SDS011;32463;48.298;11.620;2023-03-04T01:43:21;137.57;;;45.88;;
46723;SDS011;32463;48.298;11.620;2023-03-04T01:45:52;136.95;;;46.35;;
46723;SDS011;32463;48.298;11.620;2023-03-04T01:48:21;149.30;;;45.70;;
46723;SDS011;32463;48.298;11.620;2023-03-04T01:50:51;140.90;;;47.40;;
46723;SDS011;32463;48.298;11.620;2023-03-04T01:53:20;157.02;;;48.92;;
46723;SDS011;32463;48.298;11.620;2023-03-04T01:55:51;143.10;;;46.63;;
46723;SDS011;32463;48.298;11.620;2023-03-04T01:58:35;147.00;;;46.75;;
46723;SDS011;32463;48.298;11.620;2023-03-04T02:01:02;139.15;;;45.25;;
46723;SDS011;32463;48.298;11.620;2023-03-04T02:03:28;151.32;;;47.17;;
46723;SDS011;32463;48.298;11.620;2023-03-04T02:05:55;154.85;;;48.58;;
46723;SDS011;32463;48.298;11.620;2023-03-04T02:08:22;145.05;;;48.13;;
46723;SDS011;32463;48.298;11.620;2023-03-04T02:10:50;156.23;;;49.08;;
46723;SDS011;32463;48.298;11.620;2023-03-04T02:13:17;159.93;;;50.55;;
46723;SDS011;32463;48.298;11.620;2023-03-04T02:15:44;141.57;;;47.65;;
46723;SDS011;32463;48.298;11.620;2023-03-04T02:18:18;148.73;;;48.92;;
46723;SDS011;32463;48.298;11.620;2023-03-04T02:23:36;144.85;;;44.88;;
46723;SDS011;32463;48.298;11.620;2023-03-04T02:26:19;141.38;;;45.85;;
46723;SDS011;32463;48.298;11.620;2023-03-04T02:28:48;147.60;;;47.03;;
46723;SDS011;32463;48.298;11.620;2023-03-04T02:33:53;148.07;;;46.92;;
46723;SDS011;32463;48.298;11.620;2023-03-04T02:36:21;136.00;;;46.60;;
46723;SDS011;32463;48.298;11.620;2023-03-04T02:38:49;143.75;;;46.28;;
46723;SDS011;32463;48.298;11.620;2023-03-04T02:41:18;123.68;;;43.85;;
46723;SDS011;32463;48.298;11.620;2023-03-04T02:43:49;137.90;;;45.70;;
46723;SDS011;32463;48.298;11.620;2023-03-04T02:46:17;146.65;;;44.53;;
46723;SDS011;32463;48.298;11.620;2023-03-04T02:48:44;138.98;;;46.13;;
46723;SDS011;32463;48.298;11.620;2023-03-04T02:51:11;139.63;;;46.45;;
46723;SDS011;32463;48.298;11.620;2023-03-04T02:53:37;143.60;;;47.33;;
46723;SDS011;32463;48.298;11.620;2023-03-04T02:56:04;141.98;;;45.90;;
46723;SDS011;32463;48.298;11.620;2023-03-04T02:58:31;133.13;;;45.55;;
46723;SDS011;32463;48.298;11.620;2023-03-04T03:00:57;119.10;;;42.08;;
46723;SDS011;32463;48.298;11.620;2023-03-04T03:03:24;128.25;;;43.72;;
46723;SDS011;32463;48.298;11.620;2023-03-04T03:05:50;138.40;;;46.20;;
46723;SDS011;32463;48.298;11.620;2023-03-04T03:08:19;128.25;;;43.67;;
46723;SDS011;32463;48.298;11.620;2023-03-04T03:10:45;123.90;;;44.05;;
46723;SDS011;32463;48.298;11.620;2023-03-04T03:13:13;134.93;;;43.38;;
46723;SDS011;32463;48.298;11.620;2023-03-04T03:15:40;118.88;;;41.03;;
46723;SDS011;32463;48.298;11.620;2023-03-04T03:18:08;128.68;;;42.42;;
46723;SDS011;32463;48.298;11.620;2023-03-04T03:20:36;129.38;;;43.67;;
46723;SDS011;32463;48.298;11.620;2023-03-04T03:23:03;136.63;;;44.53;;
46723;SDS011;32463;48.298;11.620;2023-03-04T03:25:30;125.50;;;43.42;;
46723;SDS011;32463;48.298;11.620;2023-03-04T03:27:56;138.95;;;44.50;;
46723;SDS011;32463;48.298;11.620;2023-03-04T03:30:23;149.10;;;46.53;;
46723;SDS011;32463;48.298;11.620;2023-03-04T03:32:49;146.10;;;47.83;;
46723;SDS011;32463;48.298;11.620;2023-03-04T03:35:16;146.90;;;46.15;;
46723;SDS011;32463;48.298;11.620;2023-03-04T03:37:42;148.07;;;46.95;;
46723;SDS011;32463;48.298;11.620;2023-03-04T03:40:09;142.13;;;46.90;;
46723;SDS011;32463;48.298;11.620;2023-03-04T03:42:36;136.85;;;45.47;;
46723;SDS011;32463;48.298;11.620;2023-03-04T03:45:03;133.45;;;43.42;;
46723;SDS011;32463;48.298;11.620;2023-03-04T03:47:29;135.30;;;44.33;;
46723;SDS011;32463;48.298;11.620;2023-03-04T03:49:56;149.35;;;46.42;;
46723;SDS011;32463;48.298;11.620;2023-03-04T03:52:22;140.13;;;43.88;;
46723;SDS011;32463;48.298;11.620;2023-03-04T03:54:49;151.18;;;44.22;;
46723;SDS011;32463;48.298;11.620;2023-03-04T03:57:15;132.77;;;43.70;;
46723;SDS011;32463;48.298;11.620;2023-03-04T03:59:42;141.00;;;45.65;;
46723;SDS011;32463;48.298;11.620;2023-03-04T04:02:08;147.60;;;46.13;;
46723;SDS011;32463;48.298;11.620;2023-03-04T04:04:35;129.82;;;44.15;;
46723;SDS011;32463;48.298;11.620;2023-03-04T04:07:01;131.88;;;42.65;;
46723;SDS011;32463;48.298;11.620;2023-03-04T04:09:28;137.30;;;43.83;;
46723;SDS011;32463;48.298;11.620;2023-03-04T04:11:55;144.07;;;43.90;;
46723;SDS011;32463;48.298;11.620;2023-03-04T04:14:21;138.40;;;42.40;;
46723;SDS011;32463;48.298;11.620;2023-03-04T04:16:48;142.90;;;43.75;;
46723;SDS011;32463;48.298;11.620;2023-03-04T04:19:15;150.80;;;45.63;;
46723;SDS011;32463;48.298;11.620;2023-03-04T04:21:46;154.15;;;45.67;;
46723;SDS011;32463;48.298;11.620;2023-03-04T04:24:13;155.18;;;44.00;;
46723;SDS011;32463;48.298;11.620;2023-03-04T04:26:40;144.63;;;43.58;;
46723;SDS011;32463;48.298;11.620;2023-03-04T04:29:07;154.50;;;46.55;;
46723;SDS011;32463;48.298;11.620;2023-03-04T04:31:34;152.20;;;45.42;;
46723;SDS011;32463;48.298;11.620;2023-03-04T04:34:01;169.07;;;46.55;;
46723;SDS011;32463;48.298;11.620;2023-03-04T04:36:27;146.40;;;45.40;;
46723;SDS011;32463;48.298;11.620;2023-03-04T04:38:53;166.18;;;46.88;;
46723;SDS011;32463;48.298;11.620;2023-03-04T04:41:23;188.20;;;50.47;;
46723;SDS011;32463;48.298;11.620;2023-03-04T04:43:52;184.68;;;49.20;;
46723;SDS011;32463;48.298;11.620;2023-03-04T04:46:18;175.57;;;48.10;;
46723;SDS011;32463;48.298;11.620;2023-03-04T04:48:45;181.35;;;51.05;;
46723;SDS011;32463;48.298;11.620;2023-03-04T04:51:12;190.55;;;52.10;;
46723;SDS011;32463;48.298;11.620;2023-03-04T04:53:39;185.02;;;51.20;;
46723;SDS011;32463;48.298;11.620;2023-03-04T04:56:24;184.40;;;49.67;;
46723;SDS011;32463;48.298;11.620;2023-03-04T04:58:53;169.45;;;47.67;;
46723;SDS011;32463;48.298;11.620;2023-03-04T05:01:21;187.88;;;50.63;;
46723;SDS011;32463;48.298;11.620;2023-03-04T05:03:47;168.20;;;48.28;;
46723;SDS011;32463;48.298;11.620;2023-03-04T05:06:17;173.18;;;49.88;;
46723;SDS011;32463;48.298;11.620;2023-03-04T05:08:44;166.88;;;47.92;;
46723;SDS011;32463;48.298;11.620;2023-03-04T05:11:11;165.43;;;46.65;;
46723;SDS011;32463;48.298;11.620;2023-03-04T05:13:38;179.02;;;49.25;;
46723;SDS011;32463;48.298;11.620;2023-03-04T05:16:04;153.35;;;46.65;;
46723;SDS011;32463;48.298;11.620;2023-03-04T05:18:31;157.02;;;46.92;;
46723;SDS011;32463;48.298;11.620;2023-03-04T05:20:59;146.38;;;47.90;;
46723;SDS011;32463;48.298;11.620;2023-03-04T05:23:29;153.63;;;47.70;;
46723;SDS011;32463;48.298;11.620;2023-03-04T05:25:57;146.77;;;44.80;;
46723;SDS011;32463;48.298;11.620;2023-03-04T05:28:24;148.98;;;45.85;;
46723;SDS011;32463;48.298;11.620;2023-03-04T05:30:51;132.07;;;45.92;;
46723;SDS011;32463;48.298;11.620;2023-03-04T05:33:18;141.82;;;44.95;;
46723;SDS011;32463;48.298;11.620;2023-03-04T05:35:44;125.35;;;43.65;;
46723;SDS011;32463;48.298;11.620;2023-03-04T05:38:13;136.57;;;45.13;;
46723;SDS011;32463;48.298;11.620;2023-03-04T05:40:41;131.05;;;43.20;;
46723;SDS011;32463;48.298;11.620;2023-03-04T05:43:09;132.30;;;44.00;;
46723;SDS011;32463;48.298;11.620;2023-03-04T05:45:35;134.20;;;44.25;;
46723;SDS011;32463;48.298;11.620;2023-03-04T05:48:04;129.13;;;43.00;;
46723;SDS011;32463;48.298;11.620;2023-03-04T05:50:31;131.05;;;43.92;;
46723;SDS011;32463;48.298;11.620;2023-03-04T05:52:58;129.52;;;43.72;;
46723;SDS011;32463;48.298;11.620;2023-03-04T05:55:25;129.05;;;43.33;;
46723;SDS011;32463;48.298;11.620;2023-03-04T05:57:53;123.78;;;43.30;;
46723;SDS011;32463;48.298;11.620;2023-03-04T06:00:21;126.57;;;42.17;;
46723;SDS011;32463;48.298;11.620;2023-03-04T06:02:48;130.90;;;42.80;;
46723;SDS011;32463;48.298;11.620;2023-03-04T06:05:15;122.85;;;42.55;;
46723;SDS011;32463;48.298;11.620;2023-03-04T06:07:42;132.45;;;43.22;;
46723;SDS011;32463;48.298;11.620;2023-03-04T06:10:10;125.63;;;42.13;;
46723;SDS011;32463;48.298;11.620;2023-03-04T06:12:38;127.22;;;43.10;;
46723;SDS011;32463;48.298;11.620;2023-03-04T06:15:05;117.18;;;40.30;;
46723;SDS011;32463;48.298;11.620;2023-03-04T06:17:35;119.28;;;42.13;;
46723;SDS011;32463;48.298;11.620;2023-03-04T06:20:03;114.03;;;42.30;;
46723;SDS011;32463;48.298;11.620;2023-03-04T06:22:31;114.20;;;41.10;;
46723;SDS011;32463;48.298;11.620;2023-03-04T06:24:59;110.13;;;41.13;;
46723;SDS011;32463;48.298;11.620;2023-03-04T06:27:26;111.22;;;40.10;;
46723;SDS011;32463;48.298;11.620;2023-03-04T06:29:53;118.38;;;41.22;;
46723;SDS011;32463;48.298;11.620;2023-03-04T06:32:20;110.63;;;41.47;;
46723;SDS011;32463;48.298;11.620;2023-03-04T06:34:50;111.60;;;41.65;;
46723;SDS011;32463;48.298;11.620;2023-03-04T06:37:16;103.60;;;39.25;;
46723;SDS011;32463;48.298;11.620;2023-03-04T06:39:43;98.80;;;38.90;;
46723;SDS011;32463;48.298;11.620;2023-03-04T06:42:10;110.30;;;40.55;;
46723;SDS011;32463;48.298;11.620;2023-03-04T06:44:37;102.65;;;39.75;;
46723;SDS011;32463;48.298;11.620;2023-03-04T06:47:03;107.95;;;41.67;;
46723;SDS011;32463;48.298;11.620;2023-03-04T06:49:30;99.85;;;39.08;;
46723;SDS011;32463;48.298;11.620;2023-03-04T06:51:56;99.32;;;40.08;;
46723;SDS011;32463;48.298;11.620;2023-03-04T06:54:23;94.95;;;40.75;;
46723;SDS011;32463;48.298;11.620;2023-03-04T06:56:50;97.22;;;39.28;;
46723;SDS011;32463;48.298;11.620;2023-03-04T06:59:16;90.47;;;38.92;;
46723;SDS011;32463;48.298;11.620;2023-03-04T07:01:43;93.47;;;37.30;;
46723;SDS011;32463;48.298;11.620;2023-03-04T07:04:10;89.28;;;38.60;;
46723;SDS011;32463;48.298;11.620;2023-03-04T07:06:38;85.45;;;37.65;;
46723;SDS011;32463;48.298;11.620;2023-03-04T07:09:05;84.85;;;36.85;;
46723;SDS011;32463;48.298;11.620;2023-03-04T07:11:31;79.40;;;35.65;;
46723;SDS011;32463;48.298;11.620;2023-03-04T07:13:58;81.57;;;35.85;;
46723;SDS011;32463;48.298;11.620;2023-03-04T07:16:24;73.55;;;34.80;;
46723;SDS011;32463;48.298;11.620;2023-03-04T07:18:51;71.97;;;34.13;;
46723;SDS011;32463;48.298;11.620;2023-03-04T07:21:17;67.97;;;34.13;;
46723;SDS011;32463;48.298;11.620;2023-03-04T07:23:44;74.28;;;33.08;;
46723;SDS011;32463;48.298;11.620;2023-03-04T07:26:11;68.55;;;33.78;;
46723;SDS011;32463;48.298;11.620;2023-03-04T07:28:38;68.15;;;32.58;;
46723;SDS011;32463;48.298;11.620;2023-03-04T07:33:57;72.45;;;32.95;;
46723;SDS011;32463;48.298;11.620;2023-03-04T07:36:28;72.07;;;32.58;;
46723;SDS011;32463;48.298;11.620;2023-03-04T07:38:55;65.45;;;31.58;;
46723;SDS011;32463;48.298;11.620;2023-03-04T07:41:22;65.43;;;31.98;;
46723;SDS011;32463;48.298;11.620;2023-03-04T07:43:51;66.18;;;31.77;;
46723;SDS011;32463;48.298;11.620;2023-03-04T07:46:17;69.78;;;33.58;;
46723;SDS011;32463;48.298;11.620;2023-03-04T07:48:44;69.40;;;33.10;;
46723;SDS011;32463;48.298;11.620;2023-03-04T07:51:15;70.88;;;33.60;;
46723;SDS011;32463;48.298;11.620;2023-03-04T07:53:44;64.05;;;31.35;;
46723;SDS011;32463;48.298;11.620;2023-03-04T07:56:13;68.13;;;32.17;;
46723;SDS011;32463;48.298;11.620;2023-03-04T07:58:42;70.57;;;33.08;;
46723;SDS011;32463;48.298;11.620;2023-03-04T08:01:16;71.55;;;31.15;;
46723;SDS011;32463;48.298;11.620;2023-03-04T08:03:45;71.55;;;33.47;;
46723;SDS011;32463;48.298;11.620;2023-03-04T08:06:13;61.83;;;31.50;;
46723;SDS011;32463;48.298;11.620;2023-03-04T08:08:41;64.72;;;31.02;;
46723;SDS011;32463;48.298;11.620;2023-03-04T08:11:09;66.50;;;31.15;;
46723;SDS011;32463;48.298;11.620;2023-03-04T08:13:40;63.35;;;31.88;;
46723;SDS011;32463;48.298;11.620;2023-03-04T08:16:11;62.17;;;29.80;;
46723;SDS011;32463;48.298;11.620;2023-03-04T08:18:40;64.50;;;30.83;;
46723;SDS011;32463;48.298;11.620;2023-03-04T08:21:12;61.50;;;29.10;;
46723;SDS011;32463;48.298;11.620;2023-03-04T08:23:39;61.85;;;29.75;;
46723;SDS011;32463;48.298;11.620;2023-03-04T08:26:08;61.00;;;28.80;;
46723;SDS011;32463;48.298;11.620;2023-03-04T08:28:36;63.25;;;28.45;;
46723;SDS011;32463;48.298;11.620;2023-03-04T08:31:03;53.83;;;26.98;;
46723;SDS011;32463;48.298;11.620;2023-03-04T08:33:31;52.13;;;26.70;;
46723;SDS011;32463;48.298;11.620;2023-03-04T08:35:58;56.75;;;27.85;;
46723;SDS011;32463;48.298;11.620;2023-03-04T08:38:25;53.30;;;26.85;;
46723;SDS011;32463;48.298;11.620;2023-03-04T08:40:52;55.72;;;26.27;;
46723;SDS011;32463;48.298;11.620;2023-03-04T08:43:19;48.00;;;24.73;;
46723;SDS011;32463;48.298;11.620;2023-03-04T08:45:47;51.38;;;25.35;;
46723;SDS011;32463;48.298;11.620;2023-03-04T08:48:13;50.90;;;26.58;;
46723;SDS011;32463;48.298;11.620;2023-03-04T08:50:42;42.40;;;23.48;;
46723;SDS011;32463;48.298;11.620;2023-03-04T08:53:09;41.58;;;23.10;;
46723;SDS011;32463;48.298;11.620;2023-03-04T08:55:37;48.38;;;23.90;;
46723;SDS011;32463;48.298;11.620;2023-03-04T08:58:04;44.45;;;23.38;;
46723;SDS011;32463;48.298;11.620;2023-03-04T09:00:31;44.95;;;22.55;;
46723;SDS011;32463;48.298;11.620;2023-03-04T09:02:59;49.42;;;24.52;;
46723;SDS011;32463;48.298;11.620;2023-03-04T09:05:26;45.90;;;22.48;;
46723;SDS011;32463;48.298;11.620;2023-03-04T09:07:52;41.60;;;21.75;;
46723;SDS011;32463;48.298;11.620;2023-03-04T09:10:19;37.95;;;19.95;;
46723;SDS011;32463;48.298;11.620;2023-03-04T09:12:45;36.78;;;18.77;;
46723;SDS011;32463;48.298;11.620;2023-03-04T09:15:12;35.83;;;18.67;;
46723;SDS011;32463;48.298;11.620;2023-03-04T09:17:39;37.50;;;19.55;;
46723;SDS011;32463;48.298;11.620;2023-03-04T09:20:10;40.03;;;20.88;;
46723;SDS011;32463;48.298;11.620;2023-03-04T09:22:38;38.78;;;20.35;;
46723;SDS011;32463;48.298;11.620;2023-03-04T09:25:05;43.00;;;21.55;;
46723;SDS011;32463;48.298;11.620;2023-03-04T09:27:32;37.75;;;20.75;;
46723;SDS011;32463;48.298;11.620;2023-03-04T09:29:59;38.50;;;21.05;;
46723;SDS011;32463;48.298;11.620;2023-03-04T09:32:25;38.67;;;21.33;;
46723;SDS011;32463;48.298;11.620;2023-03-04T09:34:52;42.25;;;22.02;;
46723;SDS011;32463;48.298;11.620;2023-03-04T09:37:18;38.72;;;21.75;;
46723;SDS011;32463;48.298;11.620;2023-03-04T09:39:45;40.65;;;21.88;;
46723;SDS011;32463;48.298;11.620;2023-03-04T09:42:19;37.67;;;21.02;;
46723;SDS011;32463;48.298;11.620;2023-03-04T09:44:52;37.72;;;20.60;;
46723;SDS011;32463;48.298;11.620;2023-03-04T09:47:20;36.80;;;19.42;;
46723;SDS011;32463;48.298;11.620;2023-03-04T09:49:56;38.38;;;20.98;;
46723;SDS011;32463;48.298;11.620;2023-03-04T09:52:36;35.67;;;19.35;;
46723;SDS011;32463;48.298;11.620;2023-03-04T09:55:31;33.75;;;18.48;;
46723;SDS011;32463;48.298;11.620;2023-03-04T10:00:55;32.65;;;17.20;;
46723;SDS011;32463;48.298;11.620;2023-03-04T10:03:30;31.13;;;17.15;;
46723;SDS011;32463;48.298;11.620;2023-03-04T10:06:01;32.35;;;18.35;;
46723;SDS011;32463;48.298;11.620;2023-03-04T10:11:13;33.97;;;17.58;;
46723;SDS011;32463;48.298;11.620;2023-03-04T10:16:21;31.35;;;18.17;;
46723;SDS011;32463;48.298;11.620;2023-03-04T10:18:52;31.77;;;18.10;;
46723;SDS011;32463;48.298;11.620;2023-03-04T10:21:44;27.98;;;15.70;;
46723;SDS011;32463;48.298;11.620;2023-03-04T10:24:14;30.98;;;16.75;;
46723;SDS011;32463;48.298;11.620;2023-03-04T10:26:43;29.80;;;16.55;;
46723;SDS011;32463;48.298;11.620;2023-03-04T10:29:13;29.88;;;16.05;;
46723;SDS011;32463;48.298;11.620;2023-03-04T10:31:43;26.63;;;14.75;;
46723;SDS011;32463;48.298;11.620;2023-03-04T10:34:13;25.88;;;14.88;;
46723;SDS011;32463;48.298;11.620;2023-03-04T10:36:58;30.67;;;15.80;;
46723;SDS011;32463;48.298;11.620;2023-03-04T10:39:28;26.95;;;15.23;;
46723;SDS011;32463;48.298;11.620;2023-03-04T10:41:58;25.17;;;14.63;;
46723;SDS011;32463;48.298;11.620;2023-03-04T10:44:26;26.83;;;14.38;;
46723;SDS011;32463;48.298;11.620;2023-03-04T10:46:54;26.05;;;15.55;;
46723;SDS011;32463;48.298;11.620;2023-03-04T10:49:23;21.85;;;13.80;;
46723;SDS011;32463;48.298;11.620;2023-03-04T10:54:55;26.20;;;14.77;;
46723;SDS011;32463;48.298;11.620;2023-03-04T10:57:36;21.30;;;12.98;;
46723;SDS011;32463;48.298;11.620;2023-03-04T11:02:43;25.42;;;14.85;;
46723;SDS011;32463;48.298;11.620;2023-03-04T11:10:21;24.70;;;14.00;;
46723;SDS011;32463;48.298;11.620;2023-03-04T11:12:54;37.05;;;20.50;;
46723;SDS011;32463;48.298;11.620;2023-03-04T11:20:54;19.13;;;11.43;;
46723;SDS011;32463;48.298;11.620;2023-03-04T11:24:08;18.50;;;11.57;;
46723;SDS011;32463;48.298;11.620;2023-03-04T11:26:18;19.05;;;11.45;;
46723;SDS011;32463;48.298;11.620;2023-03-04T11:28:53;20.08;;;11.38;;
46723;SDS011;32463;48.298;11.620;2023-03-04T11:31:27;19.98;;;11.70;;
46723;SDS011;32463;48.298;11.620;2023-03-04T11:34:03;20.63;;;11.73;;
46723;SDS011;32463;48.298;11.620;2023-03-04T11:36:46;19.67;;;11.60;;
46723;SDS011;32463;48.298;11.620;2023-03-04T11:42:23;18.30;;;11.27;;
46723;SDS011;32463;48.298;11.620;2023-03-04T11:44:52;20.25;;;12.20;;
46723;SDS011;32463;48.298;11.620;2023-03-04T11:50:03;20.83;;;11.95;;
46723;SDS011;32463;48.298;11.620;2023-03-04T11:58:35;16.40;;;11.25;;
46723;SDS011;32463;48.298;11.620;2023-03-04T12:01:17;20.17;;;11.95;;
46723;SDS011;32463;48.298;11.620;2023-03-04T12:03:57;17.55;;;11.00;;
46723;SDS011;32463;48.298;11.620;2023-03-04T12:25:17;22.70;;;12.02;;
46723;SDS011;32463;48.298;11.620;2023-03-04T12:35:36;18.20;;;11.55;;
46723;SDS011;32463;48.298;11.620;2023-03-04T12:41:02;19.08;;;12.05;;
46723;SDS011;32463;48.298;11.620;2023-03-04T12:43:41;20.17;;;11.48;;
46723;SDS011;32463;48.298;11.620;2023-03-04T12:55:07;19.42;;;11.55;;
46723;SDS011;32463;48.298;11.620;2023-03-04T12:57:37;18.95;;;12.38;;
46723;SDS011;32463;48.298;11.620;2023-03-04T13:03:52;19.00;;;12.20;;
46723;SDS011;32463;48.298;11.620;2023-03-04T13:08:58;19.33;;;12.43;;
46723;SDS011;32463;48.298;11.620;2023-03-04T13:12:13;19.75;;;12.18;;
46723;SDS011;32463;48.298;11.620;2023-03-04T13:14:27;20.98;;;12.13;;
46723;SDS011;32463;48.298;11.620;2023-03-04T13:16:56;20.35;;;12.50;;
46723;SDS011;32463;48.298;11.620;2023-03-04T13:20:17;22.02;;;12.18;;
46723;SDS011;32463;48.298;11.620;2023-03-04T13:25:35;16.88;;;11.32;;
46723;SDS011;32463;48.298;11.620;2023-03-04T13:38:22;16.42;;;10.63;;
46723;SDS011;32463;48.298;11.620;2023-03-04T13:43:44;19.75;;;11.48;;
46723;SDS011;32463;48.298;11.620;2023-03-04T13:48:55;16.15;;;10.98;;
46723;SDS011;32463;48.298;11.620;2023-03-04T13:51:31;18.00;;;10.77;;
46723;SDS011;32463;48.298;11.620;2023-03-04T14:01:58;17.60;;;11.20;;
46723;SDS011;32463;48.298;11.620;2023-03-04T14:04:33;17.73;;;10.93;;
46723;SDS011;32463;48.298;11.620;2023-03-04T14:07:03;17.92;;;10.90;;
46723;SDS011;32463;48.298;11.620;2023-03-04T14:12:49;18.17;;;10.85;;
46723;SDS011;32463;48.298;11.620;2023-03-04T14:17:51;30.63;;;17.63;;
46723;SDS011;32463;48.298;11.620;2023-03-04T14:20:22;37.25;;;23.98;;
46723;SDS011;32463;48.298;11.620;2023-03-04T14:22:52;19.60;;;10.75;;
46723;SDS011;32463;48.298;11.620;2023-03-04T14:25:23;20.10;;;11.20;;
46723;SDS011;32463;48.298;11.620;2023-03-04T14:28:01;20.52;;;11.60;;
46723;SDS011;32463;48.298;11.620;2023-03-04T14:30:42;19.10;;;11.05;;
46723;SDS011;32463;48.298;11.620;2023-03-04T14:33:18;20.00;;;11.48;;
46723;SDS011;32463;48.298;11.620;2023-03-04T14:35:48;19.48;;;11.20;;
46723;SDS011;32463;48.298;11.620;2023-03-04T14:41:04;21.05;;;10.93;;
46723;SDS011;32463;48.298;11.620;2023-03-04T14:43:35;20.48;;;11.13;;
46723;SDS011;32463;48.298;11.620;2023-03-04T14:46:07;21.80;;;11.90;;
46723;SDS011;32463;48.298;11.620;2023-03-04T14:48:39;20.75;;;10.43;;
46723;SDS011;32463;48.298;11.620;2023-03-04T14:51:26;20.70;;;10.60;;
46723;SDS011;32463;48.298;11.620;2023-03-04T14:54:21;21.45;;;11.32;;
46723;SDS011;32463;48.298;11.620;2023-03-04T14:56:51;21.00;;;11.23;;
46723;SDS011;32463;48.298;11.620;2023-03-04T14:59:26;22.92;;;10.88;;
46723;SDS011;32463;48.298;11.620;2023-03-04T15:04:44;22.42;;;11.32;;
46723;SDS011;32463;48.298;11.620;2023-03-04T15:07:21;22.55;;;12.18;;
46723;SDS011;32463;48.298;11.620;2023-03-04T15:09:55;22.33;;;11.57;;
46723;SDS011;32463;48.298;11.620;2023-03-04T15:12:24;24.27;;;12.00;;
46723;SDS011;32463;48.298;11.620;2023-03-04T15:14:54;23.10;;;12.65;;
46723;SDS011;32463;48.298;11.620;2023-03-04T15:17:36;23.48;;;11.77;;
46723;SDS011;32463;48.298;11.620;2023-03-04T15:25:19;21.85;;;11.10;;
46723;SDS011;32463;48.298;11.620;2023-03-04T15:27:47;23.88;;;12.40;;
46723;SDS011;32463;48.298;11.620;2023-03-04T15:30:19;24.33;;;11.90;;
46723;SDS011;32463;48.298;11.620;2023-03-04T15:32:48;20.73;;;11.32;;
46723;SDS011;32463;48.298;11.620;2023-03-04T15:35:16;23.33;;;11.45;;
46723;SDS011;32463;48.298;11.620;2023-03-04T15:37:44;23.15;;;11.68;;
46723;SDS011;32463;48.298;11.620;2023-03-04T15:40:26;23.23;;;11.55;;
46723;SDS011;32463;48.298;11.620;2023-03-04T15:42:58;23.27;;;12.23;;
46723;SDS011;32463;48.298;11.620;2023-03-04T15:45:33;23.48;;;12.85;;
46723;SDS011;32463;48.298;11.620;2023-03-04T15:48:02;22.95;;;11.65;;
46723;SDS011;32463;48.298;11.620;2023-03-04T15:50:32;26.70;;;12.90;;
46723;SDS011;32463;48.298;11.620;2023-03-04T15:53:05;24.48;;;12.13;;
46723;SDS011;32463;48.298;11.620;2023-03-04T15:55:35;31.90;;;15.43;;
46723;SDS011;32463;48.298;11.620;2023-03-04T15:58:02;24.17;;;12.65;;
46723;SDS011;32463;48.298;11.620;2023-03-04T16:00:29;24.92;;;11.98;;
46723;SDS011;32463;48.298;11.620;2023-03-04T16:02:56;24.98;;;12.40;;
46723;SDS011;32463;48.298;11.620;2023-03-04T16:05:23;25.27;;;12.48;;
46723;SDS011;32463;48.298;11.620;2023-03-04T16:07:51;20.90;;;11.98;;
46723;SDS011;32463;48.298;11.620;2023-03-04T16:10:20;28.20;;;13.20;;
46723;SDS011;32463;48.298;11.620;2023-03-04T16:12:51;27.73;;;14.00;;
46723;SDS011;32463;48.298;11.620;2023-03-04T16:15:20;25.50;;;12.80;;
46723;SDS011;32463;48.298;11.620;2023-03-04T16:17:49;24.70;;;12.40;;
46723;SDS011;32463;48.298;11.620;2023-03-04T16:20:18;26.02;;;13.10;;
46723;SDS011;32463;48.298;11.620;2023-03-04T16:22:48;26.10;;;13.57;;
46723;SDS011;32463;48.298;11.620;2023-03-04T16:25:18;28.90;;;14.10;;
46723;SDS011;32463;48.298;11.620;2023-03-04T16:27:45;25.00;;;13.05;;